sensor_id;sensor_type;location;lat;lon;timestamp;pressure;altitude;pressure_sealevel;temperature;humidity
77333;BME280;66408;51.326;12.070;2023-02-01T00:01:08;100686.41;;;3.93;75.65
77333;BME280;66408;51.326;12.070;2023-02-01T00:03:34;100684.72;;;3.87;75.98
77333;BME280;66408;51.326;12.070;2023-02-01T00:06:01;100698.97;;;3.88;75.79
77333;BME280;66408;51.326;12.070;2023-02-01T00:08:28;100687.72;;;3.91;75.45
77333;BME280;66408;51.326;12.070;2023-02-01T00:11:00;100686.66;;;3.92;75.11
77333;BME280;66408;51.326;12.070;2023-02-01T00:13:28;100698.47;;;3.91;75.09
77333;BME280;66408;51.326;12.070;2023-02-01T00:16:02;100694.66;;;3.87;75.14
77333;BME280;66408;51.326;12.070;2023-02-01T00:18:29;100687.66;;;3.86;75.07
77333;BME280;66408;51.326;12.070;2023-02-01T00:20:55;100688.09;;;3.78;75.52
77333;BME280;66408;51.326;12.070;2023-02-01T00:23:22;100682.78;;;3.83;74.62
77333;BME280;66408;51.326;12.070;2023-02-01T00:25:48;100680.88;;;3.83;74.73
77333;BME280;66408;51.326;12.070;2023-02-01T00:28:15;100689.75;;;3.84;74.62
77333;BME280;66408;51.326;12.070;2023-02-01T00:30:41;100687.88;;;3.84;74.59
77333;BME280;66408;51.326;12.070;2023-02-01T00:33:08;100686.22;;;3.78;74.57
77333;BME280;66408;51.326;12.070;2023-02-01T00:35:35;100690.28;;;3.81;74.50
77333;BME280;66408;51.326;12.070;2023-02-01T00:38:02;100683.84;;;3.82;74.74
77333;BME280;66408;51.326;12.070;2023-02-01T00:40:28;100686.25;;;3.83;74.37
77333;BME280;66408;51.326;12.070;2023-02-01T00:42:55;100691.63;;;3.83;74.01
77333;BME280;66408;51.326;12.070;2023-02-01T00:45:23;100695.13;;;3.84;74.22
77333;BME280;66408;51.326;12.070;2023-02-01T00:47:49;100695.84;;;3.74;74.25
77333;BME280;66408;51.326;12.070;2023-02-01T00:50:16;100688.25;;;3.71;74.59
77333;BME280;66408;51.326;12.070;2023-02-01T00:52:42;100689.59;;;3.69;74.54
77333;BME280;66408;51.326;12.070;2023-02-01T00:55:09;100697.34;;;3.65;74.90
77333;BME280;66408;51.326;12.070;2023-02-01T00:57:35;100696.28;;;3.66;74.90
77333;BME280;66408;51.326;12.070;2023-02-01T01:00:02;100692.84;;;3.71;75.32
77333;BME280;66408;51.326;12.070;2023-02-01T01:02:29;100702.09;;;3.80;75.44
77333;BME280;66408;51.326;12.070;2023-02-01T01:04:55;100704.22;;;3.78;75.42
77333;BME280;66408;51.326;12.070;2023-02-01T01:07:22;100702.72;;;3.87;75.47
77333;BME280;66408;51.326;12.070;2023-02-01T01:09:48;100703.84;;;3.91;75.39
77333;BME280;66408;51.326;12.070;2023-02-01T01:12:15;100698.22;;;3.92;75.35
77333;BME280;66408;51.326;12.070;2023-02-01T01:14:41;100699.09;;;3.98;75.04
77333;BME280;66408;51.326;12.070;2023-02-01T01:17:08;100699.41;;;4.02;74.87
77333;BME280;66408;51.326;12.070;2023-02-01T01:19:34;100698.34;;;4.03;74.76
77333;BME280;66408;51.326;12.070;2023-02-01T01:22:01;100691.66;;;4.05;74.78
77333;BME280;66408;51.326;12.070;2023-02-01T01:24:27;100688.31;;;3.98;74.35
77333;BME280;66408;51.326;12.070;2023-02-01T01:26:53;100686.16;;;3.95;74.31
77333;BME280;66408;51.326;12.070;2023-02-01T01:29:20;100680.97;;;3.88;74.81
77333;BME280;66408;51.326;12.070;2023-02-01T01:31:46;100683.16;;;3.91;74.04
77333;BME280;66408;51.326;12.070;2023-02-01T01:34:13;100673.38;;;3.85;74.56
77333;BME280;66408;51.326;12.070;2023-02-01T01:36:39;100682.00;;;3.87;74.00
77333;BME280;66408;51.326;12.070;2023-02-01T01:39:06;100686.09;;;3.90;74.21
77333;BME280;66408;51.326;12.070;2023-02-01T01:41:33;100676.31;;;3.84;74.42
77333;BME280;66408;51.326;12.070;2023-02-01T01:44:03;100680.75;;;3.73;73.96
77333;BME280;66408;51.326;12.070;2023-02-01T01:46:32;100687.03;;;3.79;73.98
77333;BME280;66408;51.326;12.070;2023-02-01T01:49:06;100672.53;;;3.80;73.70
77333;BME280;66408;51.326;12.070;2023-02-01T01:51:47;100668.53;;;3.82;73.65
77333;BME280;66408;51.326;12.070;2023-02-01T01:54:35;100672.53;;;3.80;73.77
77333;BME280;66408;51.326;12.070;2023-02-01T01:57:08;100660.47;;;3.82;73.85
77333;BME280;66408;51.326;12.070;2023-02-01T01:59:38;100654.81;;;3.84;73.64
77333;BME280;66408;51.326;12.070;2023-02-01T02:02:06;100656.44;;;3.85;73.83
77333;BME280;66408;51.326;12.070;2023-02-01T02:04:33;100646.47;;;3.85;73.70
77333;BME280;66408;51.326;12.070;2023-02-01T02:07:03;100649.50;;;3.89;73.32
77333;BME280;66408;51.326;12.070;2023-02-01T02:09:30;100641.75;;;3.92;73.41
77333;BME280;66408;51.326;12.070;2023-02-01T02:11:57;100628.53;;;3.91;73.56
77333;BME280;66408;51.326;12.070;2023-02-01T02:14:25;100620.72;;;3.89;73.82
77333;BME280;66408;51.326;12.070;2023-02-01T02:41:18;100609.63;;;4.08;73.10
77333;BME280;66408;51.326;12.070;2023-02-01T02:44:12;100606.06;;;4.02;73.44
77333;BME280;66408;51.326;12.070;2023-02-01T02:47:03;100611.78;;;4.11;73.05
77333;BME280;66408;51.326;12.070;2023-02-01T02:52:54;100604.03;;;4.14;72.73
77333;BME280;66408;51.326;12.070;2023-02-01T02:55:43;100603.78;;;4.16;72.73
77333;BME280;66408;51.326;12.070;2023-02-01T02:58:10;100601.44;;;4.24;72.34
77333;BME280;66408;51.326;12.070;2023-02-01T03:00:57;100614.06;;;4.24;73.03
77333;BME280;66408;51.326;12.070;2023-02-01T03:03:43;100596.88;;;4.25;72.66
77333;BME280;66408;51.326;12.070;2023-02-01T03:06:48;100600.94;;;4.27;72.49
77333;BME280;66408;51.326;12.070;2023-02-01T03:09:31;100603.13;;;4.30;72.27
77333;BME280;66408;51.326;12.070;2023-02-01T03:12:05;100599.34;;;4.31;71.96
77333;BME280;66408;51.326;12.070;2023-02-01T03:14:57;100592.34;;;4.30;72.47
77333;BME280;66408;51.326;12.070;2023-02-01T03:17:33;100608.78;;;4.34;72.12
77333;BME280;66408;51.326;12.070;2023-02-01T03:20:03;100597.75;;;4.36;71.90
77333;BME280;66408;51.326;12.070;2023-02-01T03:22:31;100591.31;;;4.37;72.03
77333;BME280;66408;51.326;12.070;2023-02-01T03:25:07;100589.13;;;4.33;72.16
77333;BME280;66408;51.326;12.070;2023-02-01T03:27:43;100582.91;;;4.28;71.51
77333;BME280;66408;51.326;12.070;2023-02-01T03:32:50;100569.94;;;4.25;72.06
77333;BME280;66408;51.326;12.070;2023-02-01T03:38:28;100555.91;;;4.18;71.80
77333;BME280;66408;51.326;12.070;2023-02-01T03:41:17;100542.13;;;4.14;72.20
77333;BME280;66408;51.326;12.070;2023-02-01T03:44:29;100553.22;;;4.18;71.06
77333;BME280;66408;51.326;12.070;2023-02-01T03:47:23;100554.31;;;4.22;71.46
77333;BME280;66408;51.326;12.070;2023-02-01T03:52:32;100553.50;;;4.21;71.51
77333;BME280;66408;51.326;12.070;2023-02-01T03:55:02;100551.28;;;4.13;71.62
77333;BME280;66408;51.326;12.070;2023-02-01T03:57:34;100546.16;;;4.12;71.90
77333;BME280;66408;51.326;12.070;2023-02-01T04:02:31;100541.84;;;4.11;71.70
77333;BME280;66408;51.326;12.070;2023-02-01T04:04:58;100542.66;;;4.11;71.48
77333;BME280;66408;51.326;12.070;2023-02-01T04:07:24;100548.59;;;4.13;71.48
77333;BME280;66408;51.326;12.070;2023-02-01T04:09:50;100544.78;;;4.09;71.48
77333;BME280;66408;51.326;12.070;2023-02-01T04:12:17;100543.22;;;4.13;71.20
77333;BME280;66408;51.326;12.070;2023-02-01T04:14:43;100538.88;;;4.07;71.36
77333;BME280;66408;51.326;12.070;2023-02-01T04:17:10;100524.13;;;4.15;71.03
77333;BME280;66408;51.326;12.070;2023-02-01T04:19:36;100517.38;;;4.12;71.18
77333;BME280;66408;51.326;12.070;2023-02-01T04:22:03;100522.53;;;4.19;70.86
77333;BME280;66408;51.326;12.070;2023-02-01T04:24:29;100512.03;;;4.17;71.09
77333;BME280;66408;51.326;12.070;2023-02-01T04:26:56;100514.69;;;4.12;71.34
77333;BME280;66408;51.326;12.070;2023-02-01T04:29:24;100503.91;;;4.12;71.28
77333;BME280;66408;51.326;12.070;2023-02-01T04:31:51;100499.03;;;4.09;71.21
77333;BME280;66408;51.326;12.070;2023-02-01T04:34:17;100511.16;;;4.12;70.73
77333;BME280;66408;51.326;12.070;2023-02-01T04:36:44;100512.28;;;4.16;70.72
77333;BME280;66408;51.326;12.070;2023-02-01T04:39:12;100477.88;;;4.18;70.99
77333;BME280;66408;51.326;12.070;2023-02-01T04:41:39;100491.59;;;4.21;70.71
77333;BME280;66408;51.326;12.070;2023-02-01T04:44:05;100485.97;;;4.23;70.53
77333;BME280;66408;51.326;12.070;2023-02-01T04:46:32;100487.59;;;4.24;70.18
77333;BME280;66408;51.326;12.070;2023-02-01T04:48:59;100489.72;;;4.22;70.45
77333;BME280;66408;51.326;12.070;2023-02-01T04:51:25;100480.56;;;4.23;70.91
77333;BME280;66408;51.326;12.070;2023-02-01T04:53:51;100478.19;;;4.26;70.81
77333;BME280;66408;51.326;12.070;2023-02-01T04:56:18;100480.06;;;4.26;70.70
77333;BME280;66408;51.326;12.070;2023-02-01T04:58:45;100473.63;;;4.27;71.13
77333;BME280;66408;51.326;12.070;2023-02-01T05:01:11;100482.25;;;4.29;70.92
77333;BME280;66408;51.326;12.070;2023-02-01T05:03:37;100478.97;;;4.22;71.11
77333;BME280;66408;51.326;12.070;2023-02-01T05:06:04;100481.66;;;4.22;71.26
77333;BME280;66408;51.326;12.070;2023-02-01T05:08:32;100479.22;;;4.20;71.40
77333;BME280;66408;51.326;12.070;2023-02-01T05:10:58;100477.06;;;4.17;71.13
77333;BME280;66408;51.326;12.070;2023-02-01T05:13:25;100475.13;;;4.13;71.40
77333;BME280;66408;51.326;12.070;2023-02-01T05:16:10;100484.56;;;4.15;71.71
77333;BME280;66408;51.326;12.070;2023-02-01T05:18:36;100478.13;;;4.16;71.59
77333;BME280;66408;51.326;12.070;2023-02-01T05:21:03;100480.00;;;4.16;71.19
77333;BME280;66408;51.326;12.070;2023-02-01T05:23:29;100490.97;;;4.09;71.77
77333;BME280;66408;51.326;12.070;2023-02-01T05:26:00;100477.06;;;4.17;71.80
77333;BME280;66408;51.326;12.070;2023-02-01T05:28:28;100482.44;;;4.17;71.75
77333;BME280;66408;51.326;12.070;2023-02-01T05:30:54;100485.88;;;4.13;72.07
77333;BME280;66408;51.326;12.070;2023-02-01T05:33:22;100485.31;;;4.06;72.33
77333;BME280;66408;51.326;12.070;2023-02-01T05:35:48;100468.03;;;4.02;72.23
77333;BME280;66408;51.326;12.070;2023-02-01T05:38:16;100468.03;;;4.02;72.31
77333;BME280;66408;51.326;12.070;2023-02-01T05:40:43;100475.31;;;4.01;72.49
77333;BME280;66408;51.326;12.070;2023-02-01T05:43:15;100478.50;;;3.98;72.47
77333;BME280;66408;51.326;12.070;2023-02-01T05:45:42;100472.84;;;3.94;72.85
77333;BME280;66408;51.326;12.070;2023-02-01T05:48:08;100466.66;;;3.94;73.07
77333;BME280;66408;51.326;12.070;2023-02-01T05:50:35;100461.53;;;3.97;73.49
77333;BME280;66408;51.326;12.070;2023-02-01T05:53:01;100459.16;;;4.01;73.24
77333;BME280;66408;51.326;12.070;2023-02-01T05:55:27;100459.66;;;3.98;73.24
77333;BME280;66408;51.326;12.070;2023-02-01T05:57:54;100463.78;;;4.06;73.16
77333;BME280;66408;51.326;12.070;2023-02-01T06:00:21;100462.41;;;4.03;73.27
77333;BME280;66408;51.326;12.070;2023-02-01T06:02:47;100459.97;;;4.02;73.13
77333;BME280;66408;51.326;12.070;2023-02-01T06:05:14;100460.47;;;3.98;73.11
77333;BME280;66408;51.326;12.070;2023-02-01T06:07:41;100457.59;;;4.05;73.06
77333;BME280;66408;51.326;12.070;2023-02-01T06:10:09;100455.97;;;4.04;73.15
77333;BME280;66408;51.326;12.070;2023-02-01T06:12:36;100454.91;;;4.10;72.80
77333;BME280;66408;51.326;12.070;2023-02-01T06:15:02;100453.03;;;4.11;73.20
77333;BME280;66408;51.326;12.070;2023-02-01T06:17:29;100458.16;;;4.12;72.68
77333;BME280;66408;51.326;12.070;2023-02-01T06:19:56;100443.09;;;4.11;72.87
77333;BME280;66408;51.326;12.070;2023-02-01T06:22:22;100449.28;;;4.12;72.43
77333;BME280;66408;51.326;12.070;2023-02-01T06:24:49;100451.97;;;4.12;72.44
77333;BME280;66408;51.326;12.070;2023-02-01T06:27:15;100447.91;;;4.09;72.64
77333;BME280;66408;51.326;12.070;2023-02-01T06:29:42;100446.03;;;4.10;72.92
77333;BME280;66408;51.326;12.070;2023-02-01T06:32:09;100442.03;;;4.12;72.34
77333;BME280;66408;51.326;12.070;2023-02-01T06:34:36;100438.53;;;4.12;72.62
77333;BME280;66408;51.326;12.070;2023-02-01T06:37:03;100433.13;;;4.12;72.85
77333;BME280;66408;51.326;12.070;2023-02-01T06:39:29;100434.50;;;4.14;72.89
77333;BME280;66408;51.326;12.070;2023-02-01T06:41:56;100422.94;;;4.14;72.71
77333;BME280;66408;51.326;12.070;2023-02-01T06:44:22;100414.81;;;4.09;72.54
77333;BME280;66408;51.326;12.070;2023-02-01T06:46:49;100432.31;;;4.06;72.50
77333;BME280;66408;51.326;12.070;2023-02-01T06:49:15;100437.16;;;4.09;72.51
77333;BME280;66408;51.326;12.070;2023-02-01T06:51:42;100433.44;;;4.15;72.01
77333;BME280;66408;51.326;12.070;2023-02-01T06:54:09;100431.06;;;4.19;72.21
77333;BME280;66408;51.326;12.070;2023-02-01T06:56:35;100428.63;;;4.17;72.49
77333;BME280;66408;51.326;12.070;2023-02-01T06:59:06;100421.88;;;4.15;72.38
77333;BME280;66408;51.326;12.070;2023-02-01T07:01:33;100428.88;;;4.21;71.94
77333;BME280;66408;51.326;12.070;2023-02-01T07:04:00;100424.06;;;4.18;72.08
77333;BME280;66408;51.326;12.070;2023-02-01T07:06:26;100419.50;;;4.23;71.99
77333;BME280;66408;51.326;12.070;2023-02-01T07:08:53;100421.69;;;4.26;71.70
77333;BME280;66408;51.326;12.070;2023-02-01T07:11:22;100420.66;;;4.32;71.95
77333;BME280;66408;51.326;12.070;2023-02-01T07:13:48;100421.22;;;4.40;71.62
77333;BME280;66408;51.326;12.070;2023-02-01T07:16:18;100414.25;;;4.44;71.44
77333;BME280;66408;51.326;12.070;2023-02-01T07:18:46;100408.59;;;4.45;71.43
77333;BME280;66408;51.326;12.070;2023-02-01T07:21:13;100418.56;;;4.45;71.64
77333;BME280;66408;51.326;12.070;2023-02-01T07:23:40;100408.88;;;4.49;71.07
77333;BME280;66408;51.326;12.070;2023-02-01T07:26:09;100398.91;;;4.49;71.26
77333;BME280;66408;51.326;12.070;2023-02-01T07:28:36;100403.22;;;4.50;71.21
77333;BME280;66408;51.326;12.070;2023-02-01T07:31:30;100408.06;;;4.48;71.60
77333;BME280;66408;51.326;12.070;2023-02-01T07:33:56;100405.41;;;4.53;70.58
77333;BME280;66408;51.326;12.070;2023-02-01T07:36:24;100396.81;;;4.56;70.55
77333;BME280;66408;51.326;12.070;2023-02-01T07:38:51;100391.44;;;4.56;71.04
77333;BME280;66408;51.326;12.070;2023-02-01T07:41:21;100389.00;;;4.60;70.88
77333;BME280;66408;51.326;12.070;2023-02-01T07:43:48;100383.91;;;4.63;70.67
77333;BME280;66408;51.326;12.070;2023-02-01T07:46:16;100378.81;;;4.67;71.22
77333;BME280;66408;51.326;12.070;2023-02-01T07:48:44;100382.59;;;4.71;71.29
77333;BME280;66408;51.326;12.070;2023-02-01T07:51:13;100382.63;;;4.76;70.89
77333;BME280;66408;51.326;12.070;2023-02-01T07:53:41;100388.53;;;4.73;71.20
77333;BME280;66408;51.326;12.070;2023-02-01T07:56:16;100387.75;;;4.78;70.88
77333;BME280;66408;51.326;12.070;2023-02-01T07:58:43;100402.31;;;4.82;70.66
77333;BME280;66408;51.326;12.070;2023-02-01T08:01:17;100397.44;;;4.79;70.96
77333;BME280;66408;51.326;12.070;2023-02-01T08:03:54;100395.81;;;4.83;71.26
77333;BME280;66408;51.326;12.070;2023-02-01T08:06:23;100399.06;;;4.85;71.13
77333;BME280;66408;51.326;12.070;2023-02-01T08:08:50;100406.09;;;4.91;71.45
77333;BME280;66408;51.326;12.070;2023-02-01T08:11:17;100392.38;;;4.97;71.44
77333;BME280;66408;51.326;12.070;2023-02-01T08:13:45;100410.16;;;4.93;71.14
77333;BME280;66408;51.326;12.070;2023-02-01T08:16:13;100395.34;;;4.91;71.23
77333;BME280;66408;51.326;12.070;2023-02-01T08:18:40;100407.41;;;4.83;71.59
77333;BME280;66408;51.326;12.070;2023-02-01T08:21:24;100415.78;;;4.82;72.09
77333;BME280;66408;51.326;12.070;2023-02-01T08:23:51;100408.22;;;4.84;72.31
77333;BME280;66408;51.326;12.070;2023-02-01T08:26:24;100418.69;;;4.75;72.90
77333;BME280;66408;51.326;12.070;2023-02-01T08:29:02;100414.38;;;4.74;73.62
77333;BME280;66408;51.326;12.070;2023-02-01T08:31:30;100428.66;;;4.75;74.78
77333;BME280;66408;51.326;12.070;2023-02-01T08:34:00;100427.56;;;4.65;75.01
77333;BME280;66408;51.326;12.070;2023-02-01T08:36:29;100420.25;;;4.56;75.90
77333;BME280;66408;51.326;12.070;2023-02-01T08:38:56;100429.34;;;4.50;76.53
77333;BME280;66408;51.326;12.070;2023-02-01T08:41:25;100430.16;;;4.50;75.91
77333;BME280;66408;51.326;12.070;2023-02-01T08:43:52;100430.38;;;4.39;76.47
77333;BME280;66408;51.326;12.070;2023-02-01T08:46:20;100438.13;;;4.35;77.01
77333;BME280;66408;51.326;12.070;2023-02-01T08:48:48;100438.44;;;4.39;76.30
77333;BME280;66408;51.326;12.070;2023-02-01T08:51:17;100420.66;;;4.38;76.61
77333;BME280;66408;51.326;12.070;2023-02-01T08:53:44;100428.47;;;4.39;76.62
77333;BME280;66408;51.326;12.070;2023-02-01T08:56:12;100425.84;;;4.44;76.62
77333;BME280;66408;51.326;12.070;2023-02-01T08:58:39;100421.53;;;4.48;75.68
77333;BME280;66408;51.326;12.070;2023-02-01T09:01:09;100436.66;;;4.54;76.63
77333;BME280;66408;51.326;12.070;2023-02-01T09:03:35;100446.88;;;4.52;76.33
77333;BME280;66408;51.326;12.070;2023-02-01T09:06:04;100439.34;;;4.59;75.96
77333;BME280;66408;51.326;12.070;2023-02-01T09:08:31;100442.28;;;4.53;76.56
77333;BME280;66408;51.326;12.070;2023-02-01T09:11:05;100450.13;;;4.59;76.48
77333;BME280;66408;51.326;12.070;2023-02-01T09:13:32;100453.66;;;4.65;76.46
77333;BME280;66408;51.326;12.070;2023-02-01T09:15:59;100448.28;;;4.70;76.69
77333;BME280;66408;51.326;12.070;2023-02-01T09:18:26;100451.53;;;4.72;76.98
77333;BME280;66408;51.326;12.070;2023-02-01T09:20:53;100459.91;;;4.76;76.47
77333;BME280;66408;51.326;12.070;2023-02-01T09:23:19;100450.22;;;4.75;75.77
77333;BME280;66408;51.326;12.070;2023-02-01T09:25:46;100459.66;;;4.77;75.61
77333;BME280;66408;51.326;12.070;2023-02-01T09:28:17;100464.22;;;4.77;76.05
77333;BME280;66408;51.326;12.070;2023-02-01T09:30:43;100454.28;;;4.77;76.15
77333;BME280;66408;51.326;12.070;2023-02-01T09:33:10;100462.66;;;4.86;76.16
77333;BME280;66408;51.326;12.070;2023-02-01T09:35:37;100450.84;;;4.92;76.13
77333;BME280;66408;51.326;12.070;2023-02-01T09:38:04;100468.97;;;5.07;75.17
77333;BME280;66408;51.326;12.070;2023-02-01T09:40:31;100464.66;;;5.16;74.81
77333;BME280;66408;51.326;12.070;2023-02-01T09:45:43;100472.00;;;5.46;74.57
77333;BME280;66408;51.326;12.070;2023-02-01T09:48:20;100464.75;;;5.51;73.25
77333;BME280;66408;51.326;12.070;2023-02-01T09:50:52;100467.19;;;5.48;73.79
77333;BME280;66408;51.326;12.070;2023-02-01T09:56:14;100474.19;;;5.44;72.88
77333;BME280;66408;51.326;12.070;2023-02-01T09:58:44;100466.88;;;5.44;72.98
77333;BME280;66408;51.326;12.070;2023-02-01T10:01:20;100468.25;;;5.41;73.69
77333;BME280;66408;51.326;12.070;2023-02-01T10:03:49;100492.28;;;5.53;73.60
77333;BME280;66408;51.326;12.070;2023-02-01T10:17:12;100468.88;;;6.09;70.84
77333;BME280;66408;51.326;12.070;2023-02-01T10:19:54;100464.84;;;6.17;70.00
77333;BME280;66408;51.326;12.070;2023-02-01T10:25:45;100463.72;;;6.54;68.61
77333;BME280;66408;51.326;12.070;2023-02-01T10:28:19;100458.88;;;7.20;66.18
77333;BME280;66408;51.326;12.070;2023-02-01T10:30:48;100450.19;;;8.06;63.49
77333;BME280;66408;51.326;12.070;2023-02-01T10:33:27;100479.41;;;7.75;62.49
77333;BME280;66408;51.326;12.070;2023-02-01T10:36:21;100448.63;;;7.17;61.94
77333;BME280;66408;51.326;12.070;2023-02-01T10:38:48;100466.31;;;6.89;62.78
77333;BME280;66408;51.326;12.070;2023-02-01T10:41:31;100468.66;;;7.06;62.87
77333;BME280;66408;51.326;12.070;2023-02-01T10:44:00;100456.31;;;7.83;61.07
77333;BME280;66408;51.326;12.070;2023-02-01T10:46:31;100447.75;;;7.71;61.67
77333;BME280;66408;51.326;12.070;2023-02-01T10:49:00;100439.53;;;7.86;60.92
77333;BME280;66408;51.326;12.070;2023-02-01T10:54:16;100436.16;;;8.81;58.63
77333;BME280;66408;51.326;12.070;2023-02-01T10:56:44;100450.25;;;10.00;56.69
77333;BME280;66408;51.326;12.070;2023-02-01T10:59:20;100445.66;;;10.88;53.14
77333;BME280;66408;51.326;12.070;2023-02-01T11:01:48;100446.44;;;11.30;52.21
77333;BME280;66408;51.326;12.070;2023-02-01T11:04:18;100457.69;;;10.87;51.22
77333;BME280;66408;51.326;12.070;2023-02-01T11:06:47;100456.34;;;9.92;53.23
77333;BME280;66408;51.326;12.070;2023-02-01T11:09:22;100464.34;;;9.27;55.57
77333;BME280;66408;51.326;12.070;2023-02-01T11:14:26;100471.09;;;8.01;59.15
77333;BME280;66408;51.326;12.070;2023-02-01T11:16:55;100459.38;;;7.76;61.17
77333;BME280;66408;51.326;12.070;2023-02-01T11:19:22;100453.69;;;7.73;61.21
77333;BME280;66408;51.326;12.070;2023-02-01T11:21:53;100446.28;;;7.88;60.55
77333;BME280;66408;51.326;12.070;2023-02-01T11:24:24;100440.81;;;7.93;60.95
77333;BME280;66408;51.326;12.070;2023-02-01T11:26:55;100440.47;;;8.29;59.31
77333;BME280;66408;51.326;12.070;2023-02-01T11:29:23;100444.88;;;8.54;58.32
77333;BME280;66408;51.326;12.070;2023-02-01T11:31:57;100442.88;;;8.64;59.24
77333;BME280;66408;51.326;12.070;2023-02-01T11:34:36;100442.94;;;8.83;57.76
77333;BME280;66408;51.326;12.070;2023-02-01T11:37:03;100435.72;;;8.74;56.70
77333;BME280;66408;51.326;12.070;2023-02-01T11:39:33;100445.34;;;8.61;57.43
77333;BME280;66408;51.326;12.070;2023-02-01T11:42:11;100446.97;;;8.33;58.05
77333;BME280;66408;51.326;12.070;2023-02-01T11:44:44;100436.25;;;8.18;58.22
77333;BME280;66408;51.326;12.070;2023-02-01T11:47:27;100443.34;;;8.14;58.89
77333;BME280;66408;51.326;12.070;2023-02-01T11:49:57;100433.13;;;8.06;59.13
77333;BME280;66408;51.326;12.070;2023-02-01T11:52:48;100421.97;;;8.12;59.52
77333;BME280;66408;51.326;12.070;2023-02-01T11:55:42;100427.91;;;8.14;59.35
77333;BME280;66408;51.326;12.070;2023-02-01T12:01:47;100424.78;;;8.02;57.37
77333;BME280;66408;51.326;12.070;2023-02-01T12:13:09;100417.13;;;8.09;57.82
77333;BME280;66408;51.326;12.070;2023-02-01T12:19:03;100403.00;;;8.12;57.51
77333;BME280;66408;51.326;12.070;2023-02-01T12:24:30;100396.41;;;8.23;56.32
77333;BME280;66408;51.326;12.070;2023-02-01T12:27:24;100406.06;;;8.35;55.70
77333;BME280;66408;51.326;12.070;2023-02-01T12:30:32;100389.00;;;8.34;54.00
77333;BME280;66408;51.326;12.070;2023-02-01T12:36:06;100388.56;;;8.22;55.07
77333;BME280;66408;51.326;12.070;2023-02-01T12:44:03;100384.38;;;8.06;55.34
77333;BME280;66408;51.326;12.070;2023-02-01T12:46:41;100380.84;;;8.05;55.40
77333;BME280;66408;51.326;12.070;2023-02-01T12:52:11;100374.84;;;7.84;55.64
77333;BME280;66408;51.326;12.070;2023-02-01T12:54:49;100386.03;;;7.73;57.22
77333;BME280;66408;51.326;12.070;2023-02-01T12:59:56;100363.41;;;7.58;56.27
77333;BME280;66408;51.326;12.070;2023-02-01T13:02:35;100362.97;;;7.46;56.67
77333;BME280;66408;51.326;12.070;2023-02-01T13:05:18;100361.41;;;7.40;56.80
77333;BME280;66408;51.326;12.070;2023-02-01T13:08:14;100366.28;;;7.38;56.03
77333;BME280;66408;51.326;12.070;2023-02-01T13:10:51;100353.38;;;7.25;56.72
77333;BME280;66408;51.326;12.070;2023-02-01T13:13:32;100348.81;;;7.20;56.54
77333;BME280;66408;51.326;12.070;2023-02-01T13:16:23;100339.34;;;7.23;56.84
77333;BME280;66408;51.326;12.070;2023-02-01T13:18:59;100341.22;;;7.22;55.71
77333;BME280;66408;51.326;12.070;2023-02-01T13:21:31;100343.13;;;7.22;56.95
77333;BME280;66408;51.326;12.070;2023-02-01T13:23:58;100325.53;;;7.25;56.62
77333;BME280;66408;51.326;12.070;2023-02-01T13:26:24;100331.50;;;7.21;56.53
77333;BME280;66408;51.326;12.070;2023-02-01T13:28:53;100336.63;;;7.23;56.62
77333;BME280;66408;51.326;12.070;2023-02-01T13:42:50;100318.63;;;7.08;60.14
77333;BME280;66408;51.326;12.070;2023-02-01T13:45:21;100307.06;;;6.98;61.29
77333;BME280;66408;51.326;12.070;2023-02-01T13:47:51;100310.59;;;6.93;61.96
77333;BME280;66408;51.326;12.070;2023-02-01T13:50:27;100307.09;;;6.93;62.75
77333;BME280;66408;51.326;12.070;2023-02-01T13:55:43;100303.09;;;6.85;61.83
77333;BME280;66408;51.326;12.070;2023-02-01T13:58:21;100302.59;;;6.78;61.76
77333;BME280;66408;51.326;12.070;2023-02-01T14:00:49;100295.31;;;6.73;61.89
77333;BME280;66408;51.326;12.070;2023-02-01T14:03:22;100298.03;;;6.73;61.96
77333;BME280;66408;51.326;12.070;2023-02-01T14:08:38;100291.47;;;6.84;62.29
77333;BME280;66408;51.326;12.070;2023-02-01T14:11:05;100290.38;;;6.91;61.56
77333;BME280;66408;51.326;12.070;2023-02-01T14:13:37;100271.38;;;7.01;62.19
77333;BME280;66408;51.326;12.070;2023-02-01T14:29:03;100250.66;;;7.54;59.42
77333;BME280;66408;51.326;12.070;2023-02-01T14:37:03;100249.63;;;7.16;60.67
77333;BME280;66408;51.326;12.070;2023-02-01T14:42:37;100242.19;;;6.98;60.88
77333;BME280;66408;51.326;12.070;2023-02-01T15:03:48;100250.13;;;6.40;65.15
77333;BME280;66408;51.326;12.070;2023-02-01T15:08:59;100230.97;;;6.31;65.87
77333;BME280;66408;51.326;12.070;2023-02-01T15:11:26;100242.63;;;6.27;66.20
77333;BME280;66408;51.326;12.070;2023-02-01T15:13:53;100234.53;;;6.22;66.18
77333;BME280;66408;51.326;12.070;2023-02-01T15:16:24;100229.41;;;6.20;66.40
77333;BME280;66408;51.326;12.070;2023-02-01T15:19:06;100230.53;;;6.14;67.05
77333;BME280;66408;51.326;12.070;2023-02-01T15:21:44;100212.44;;;6.15;66.28
77333;BME280;66408;51.326;12.070;2023-02-01T15:24:25;100210.56;;;6.15;65.47
77333;BME280;66408;51.326;12.070;2023-02-01T15:26:53;100211.38;;;6.10;67.10
77333;BME280;66408;51.326;12.070;2023-02-01T15:29:21;100196.53;;;6.08;68.31
77333;BME280;66408;51.326;12.070;2023-02-01T15:31:51;100192.78;;;6.04;67.58
77333;BME280;66408;51.326;12.070;2023-02-01T15:34:19;100180.66;;;6.01;68.11
77333;BME280;66408;51.326;12.070;2023-02-01T15:36:47;100198.75;;;6.01;66.82
77333;BME280;66408;51.326;12.070;2023-02-01T15:39:28;100199.00;;;6.04;66.70
77333;BME280;66408;51.326;12.070;2023-02-01T15:41:59;100185.78;;;6.03;66.17
77333;BME280;66408;51.326;12.070;2023-02-01T15:44:38;100187.63;;;6.07;65.60